createdAt,value
2022-08-08T10:24:28.299Z,1.50
2022-08-08T10:27:02.813Z,1.40
2022-08-08T10:29:56.878Z,1.27
2022-08-08T10:32:48.276Z,1.17
2022-08-08T10:36:06.915Z,1.05
2022-08-08T10:38:16.309Z,1.30
2022-08-08T10:40:45.815Z,0.95
2022-08-08T10:43:14.349Z,1.50
2022-08-08T10:45:56.802Z,1.30
2022-08-08T10:48:58.394Z,1.25
2022-08-08T10:51:31.453Z,1.23
2022-08-08T10:54:08.105Z,1.45
2022-08-08T10:56:43.090Z,1.10
2022-08-08T10:59:12.148Z,1.15
2022-08-08T11:01:54.316Z,1.00
2022-08-08T11:04:29.992Z,1.52
2022-08-08T11:07:06.896Z,1.15
2022-08-08T11:09:34.755Z,1.20
2022-08-08T11:12:12.580Z,1.30
2022-08-08T11:14:57.012Z,1.10
2022-08-08T11:18:00.636Z,1.00
2022-08-08T11:20:27.619Z,1.38
2022-08-08T11:22:58.077Z,1.02
2022-08-08T11:25:51.922Z,1.00
2022-08-08T11:28:29.546Z,1.00
2022-08-08T11:31:04.174Z,1.40
2022-08-08T11:33:53.191Z,0.90
2022-08-08T11:36:29.166Z,1.10
2022-08-08T11:38:57.335Z,1.10
2022-08-08T11:41:33.833Z,1.20
2022-08-08T11:44:02.587Z,1.30
2022-08-08T11:46:32.667Z,0.88
2022-08-08T11:49:09.296Z,1.08
2022-08-08T11:51:49.402Z,1.08
2022-08-08T11:54:32.009Z,1.30
2022-08-08T11:57:27.237Z,0.90
2022-08-08T12:00:07.084Z,1.20
2022-08-08T12:02:55.404Z,1.05
2022-08-08T12:05:38.677Z,1.10
2022-08-08T12:08:06.062Z,0.90
2022-08-08T12:10:34.146Z,1.25
2022-08-08T12:13:04.723Z,0.98
2022-08-08T12:15:39.940Z,1.15
2022-08-08T12:18:25.414Z,1.10
2022-08-08T12:20:58.625Z,1.10
2022-08-08T12:23:43.329Z,1.10
2022-08-08T12:26:28.069Z,1.15
2022-08-08T12:29:41.066Z,1.00
2022-08-08T12:32:13.479Z,1.00
2022-08-08T12:35:01.239Z,1.08
2022-08-08T12:37:40.893Z,1.17
2022-08-08T12:40:22.704Z,1.13
2022-08-08T12:42:53.172Z,0.77
2022-08-08T12:45:58.873Z,1.00
2022-08-08T12:48:37.650Z,0.90
2022-08-08T12:51:11.704Z,0.93
2022-08-08T12:53:59.200Z,0.95
2022-08-08T12:56:35.388Z,1.00
2022-08-08T12:59:18.172Z,1.00
2022-08-08T13:02:28.586Z,0.75
2022-08-08T13:05:00.165Z,0.95
2022-08-08T13:08:03.741Z,1.00
2022-08-08T13:10:36.318Z,0.80
2022-08-08T13:13:08.159Z,1.00
2022-08-08T13:15:36.851Z,1.10
2022-08-08T13:18:09.821Z,0.75
2022-08-08T13:20:48.400Z,1.00
2022-08-08T13:23:41.425Z,0.80
2022-08-08T13:26:14.738Z,1.00
2022-08-08T13:28:45.386Z,0.90
2022-08-08T13:31:16.294Z,1.02
2022-08-08T13:33:50.823Z,0.90
2022-08-08T13:36:26.361Z,0.93
2022-08-08T13:38:54.565Z,1.10
2022-08-08T13:41:22.919Z,0.70
2022-08-08T13:43:51.040Z,1.00
2022-08-08T13:46:26.384Z,0.80
2022-08-08T13:49:12.327Z,0.70
2022-08-08T13:51:53.974Z,0.77
2022-08-08T13:54:29.506Z,0.70
2022-08-08T13:57:12.828Z,1.00
2022-08-08T13:59:48.141Z,0.80
2022-08-08T14:02:30.943Z,0.90
2022-08-08T14:05:05.179Z,0.95
2022-08-08T14:07:49.888Z,0.73
2022-08-08T14:10:33.361Z,0.90
2022-08-08T14:13:31.077Z,0.60
2022-08-08T14:16:07.764Z,0.75
2022-08-08T14:18:58.257Z,0.90
2022-08-08T14:21:48.850Z,0.75
2022-08-08T14:24:34.583Z,0.60
2022-08-08T14:27:01.640Z,0.77
2022-08-08T14:29:30.549Z,0.90
2022-08-08T14:32:08.861Z,1.00
2022-08-08T14:34:42.770Z,0.60
2022-08-08T14:37:13.306Z,0.70
2022-08-08T14:40:05.521Z,0.70
2022-08-08T14:42:47.298Z,0.85
2022-08-08T14:45:33.776Z,0.88
2022-08-08T14:48:17.720Z,0.77
2022-08-08T14:51:06.742Z,0.70
2022-08-08T14:53:55.165Z,0.90
2022-08-08T14:56:25.853Z,0.88
2022-08-08T14:58:54.843Z,0.63
2022-08-08T15:01:49.778Z,0.95
2022-08-08T15:04:18.381Z,0.80
2022-08-08T15:06:45.488Z,0.60
2022-08-08T15:09:12.553Z,0.80
2022-08-08T15:11:46.065Z,0.80
2022-08-08T15:14:15.029Z,0.70
2022-08-08T15:16:44.509Z,1.10
2022-08-08T15:19:11.708Z,0.55
2022-08-08T15:21:43.052Z,0.77
2022-08-08T15:24:14.052Z,0.60
2022-08-08T15:26:43.988Z,0.70
2022-08-08T15:29:19.383Z,0.80
2022-08-08T15:32:19.399Z,0.88
2022-08-08T15:34:39.383Z,0.75
2022-08-08T15:37:07.635Z,0.65
2022-08-08T15:39:38.259Z,0.68
2022-08-08T15:42:10.369Z,0.70
2022-08-08T15:44:42.239Z,0.88
2022-08-08T15:47:15.250Z,0.70
2022-08-08T15:49:47.525Z,0.50
2022-08-08T15:52:17.382Z,0.63
2022-08-08T15:54:51.870Z,0.70
2022-08-08T15:57:21.269Z,0.88
2022-08-08T16:00:25.334Z,0.70
2022-08-08T16:02:35.971Z,0.90
2022-08-08T16:05:09.351Z,1.00
2022-08-08T16:07:52.537Z,0.80
2022-08-08T16:13:02.254Z,0.60
2022-08-08T16:13:34.522Z,0.60
2022-08-08T16:16:12.736Z,0.73
2022-08-08T16:18:56.432Z,0.88
2022-08-08T16:21:29.130Z,0.80
2022-08-08T16:23:58.071Z,0.70
2022-08-08T16:26:33.678Z,0.70
2022-08-08T16:29:16.368Z,0.73
2022-08-08T16:31:49.001Z,0.60
2022-08-08T16:34:20.489Z,0.77
2022-08-08T16:36:51.779Z,0.60
2022-08-08T16:39:59.854Z,0.70
2022-08-08T16:42:07.953Z,0.95
2022-08-08T16:44:47.519Z,0.55
2022-08-08T16:47:31.696Z,0.70
2022-08-08T16:50:15.195Z,0.60
2022-08-08T16:55:03.617Z,0.77
2022-08-08T16:55:52.314Z,0.80
2022-08-08T16:58:25.701Z,0.52
2022-08-08T17:00:54.661Z,0.70
2022-08-08T17:03:24.332Z,0.70
2022-08-08T17:05:53.543Z,0.73
2022-08-08T17:08:20.684Z,0.50
2022-08-08T17:10:53.583Z,0.73
2022-08-08T17:13:41.405Z,0.60
2022-08-08T17:16:16.354Z,0.55
2022-08-08T17:18:45.530Z,0.80
2022-08-08T17:21:13.736Z,0.60
2022-08-08T17:23:58.586Z,0.80
2022-08-08T17:26:29.219Z,0.60
2022-08-08T17:29:03.982Z,0.70
2022-08-08T17:31:44.451Z,0.85
2022-08-08T17:34:47.903Z,0.68
2022-08-08T17:37:06.461Z,0.80
2022-08-08T17:40:04.028Z,0.88
2022-08-08T17:42:20.982Z,0.85
2022-08-08T17:44:51.034Z,0.68
2022-08-08T17:47:24.404Z,0.60
2022-08-08T17:50:01.476Z,0.80
2022-08-08T17:52:33.356Z,0.82
2022-08-08T17:55:05.327Z,0.80
2022-08-08T17:57:35.330Z,0.68
2022-08-08T18:00:13.197Z,0.70
2022-08-08T18:03:02.132Z,0.82
2022-08-08T18:05:48.916Z,0.80
2022-08-08T18:08:24.586Z,0.90
2022-08-08T18:11:16.845Z,0.60
2022-08-08T18:13:46.202Z,0.80
2022-08-08T18:16:20.174Z,0.68
2022-08-08T18:18:52.779Z,0.73
2022-08-08T18:21:34.942Z,0.77
2022-08-08T18:24:17.358Z,0.73
2022-08-08T18:26:53.730Z,0.75
2022-08-08T18:29:34.032Z,0.80
2022-08-08T18:32:04.778Z,0.70
2022-08-08T18:34:34.096Z,0.70
2022-08-08T18:37:08.550Z,0.90
2022-08-08T18:39:41.340Z,0.55
2022-08-08T18:42:15.871Z,1.00
2022-08-08T18:44:55.743Z,0.90
2022-08-08T18:47:28.433Z,0.80
2022-08-08T18:50:00.223Z,0.68
2022-08-08T18:52:33.859Z,0.70
2022-08-08T18:55:09.613Z,0.80
2022-08-08T18:57:45.057Z,0.90
2022-08-08T19:00:21.027Z,0.80
2022-08-08T19:02:56.216Z,0.80
2022-08-08T19:05:34.479Z,0.90
2022-08-08T19:08:25.571Z,0.80
2022-08-08T19:11:01.467Z,0.80
2022-08-08T19:13:53.780Z,1.08
2022-08-08T19:16:19.951Z,0.90
2022-08-08T19:18:57.372Z,0.70
2022-08-08T19:21:31.042Z,0.80
2022-08-08T19:24:05.435Z,1.00
2022-08-08T19:26:37.392Z,1.17
2022-08-08T19:29:06.238Z,1.10
2022-08-08T19:31:35.315Z,1.02
2022-08-08T19:34:29.910Z,0.85
2022-08-08T19:36:58.484Z,0.90
2022-08-08T19:39:34.686Z,0.90
2022-08-08T19:42:04.375Z,0.70
2022-08-08T19:44:42.897Z,0.93
2022-08-08T19:47:14.666Z,0.63
2022-08-08T19:49:43.039Z,0.77
2022-08-08T19:52:13.535Z,0.83
2022-08-08T19:54:43.099Z,0.77
2022-08-08T19:57:10.231Z,0.40
2022-08-08T19:59:41.978Z,0.87
2022-08-08T20:02:10.569Z,0.73
2022-08-08T20:04:38.888Z,0.73
2022-08-08T20:08:28.313Z,0.65
2022-08-08T20:09:57.148Z,0.73
2022-08-08T20:12:32.445Z,0.70
2022-08-08T20:15:14.127Z,0.70
2022-08-08T20:17:42.234Z,1.20
2022-08-08T20:20:12.309Z,0.90
2022-08-08T20:22:46.255Z,0.73
2022-08-08T20:25:17.428Z,0.70
2022-08-08T20:27:50.469Z,0.80
2022-08-08T20:30:52.822Z,0.70
2022-08-08T20:33:19.751Z,0.80
2022-08-08T20:35:57.987Z,1.00
2022-08-08T20:38:32.137Z,0.90
2022-08-08T20:41:05.911Z,0.70
2022-08-08T20:43:48.410Z,0.63
2022-08-08T20:46:20.803Z,0.80
2022-08-08T20:48:51.312Z,1.00
2022-08-08T20:51:18.609Z,0.60
2022-08-08T20:53:57.823Z,0.80
2022-08-08T20:56:35.612Z,0.67
2022-08-08T20:59:08.843Z,0.73
2022-08-08T21:02:06.851Z,0.90
2022-08-08T21:04:27.423Z,0.63
2022-08-08T21:06:55.399Z,0.70
2022-08-08T21:09:22.323Z,0.77
2022-08-08T21:11:53.459Z,0.70
2022-08-08T21:14:30.526Z,0.80
2022-08-08T21:17:06.322Z,0.70
2022-08-08T21:19:45.238Z,1.07
2022-08-08T21:25:36.014Z,0.70
2022-08-08T21:28:09.350Z,0.60
2022-08-08T21:30:42.561Z,0.80
2022-08-08T21:33:12.334Z,0.73
2022-08-08T21:36:19.183Z,0.70
2022-08-08T21:38:27.127Z,0.70
2022-08-08T21:41:38.170Z,0.70
2022-08-08T21:44:06.076Z,0.60
2022-08-08T21:48:06.925Z,0.70
2022-08-08T21:49:20.079Z,0.80
2022-08-08T21:54:18.597Z,0.73
2022-08-08T21:55:01.903Z,0.70
2022-08-08T21:57:23.694Z,0.80
2022-08-08T22:00:03.570Z,0.83
2022-08-08T22:02:31.524Z,1.27
2022-08-08T22:04:59.134Z,1.30
2022-08-08T22:07:39.845Z,1.00
2022-08-08T22:10:09.920Z,1.23
2022-08-08T22:12:46.999Z,1.17
2022-08-08T22:15:13.978Z,1.10
2022-08-08T22:17:45.527Z,1.00
2022-08-08T22:20:18.794Z,1.00
2022-08-08T22:23:13.626Z,1.10
2022-08-08T22:26:28.291Z,1.03
2022-08-08T22:29:14.204Z,1.10
2022-08-08T22:31:16.259Z,1.20
2022-08-08T22:34:13.116Z,1.27
2022-08-08T22:36:34.267Z,1.00
2022-08-08T22:39:01.430Z,1.30
2022-08-08T22:41:33.776Z,1.17
2022-08-08T22:44:05.982Z,1.13
2022-08-08T22:46:38.772Z,1.20
2022-08-08T22:49:06.927Z,1.10
2022-08-08T22:51:42.851Z,1.27
2022-08-08T22:54:31.846Z,1.20
2022-08-08T22:57:01.287Z,1.03
2022-08-08T22:59:36.257Z,1.30
2022-08-08T23:02:14.912Z,1.33
2022-08-08T23:05:02.127Z,1.30
2022-08-08T23:07:51.597Z,1.20
2022-08-08T23:10:21.306Z,1.10
2022-08-08T23:12:51.594Z,1.00
2022-08-08T23:16:41.522Z,1.00
2022-08-08T23:18:11.823Z,0.93
2022-08-08T23:20:43.829Z,1.20
2022-08-08T23:23:12.999Z,1.50
2022-08-08T23:25:47.750Z,1.20
2022-08-08T23:28:18.058Z,1.37
2022-08-08T23:30:47.270Z,1.57
2022-08-08T23:33:21.181Z,1.37
2022-08-08T23:36:08.255Z,1.40
2022-08-08T23:38:41.935Z,1.03
2022-08-08T23:41:23.012Z,1.50
2022-08-08T23:43:56.077Z,1.37
2022-08-08T23:49:07.962Z,1.40
2022-08-08T23:49:14.985Z,1.20
2022-08-08T23:52:04.743Z,1.30
2022-08-08T23:54:42.440Z,1.40
2022-08-08T23:57:27.842Z,1.10
